createdAt,value
2022-12-08T00:01:10.861Z,4.40
2022-12-08T00:03:38.663Z,4.40
2022-12-08T00:06:24.882Z,4.40
2022-12-08T00:09:10.747Z,4.40
2022-12-08T00:11:39.065Z,4.40
2022-12-08T00:14:06.405Z,4.40
2022-12-08T00:16:33.833Z,4.40
2022-12-08T00:19:01.184Z,4.40
2022-12-08T00:21:29.145Z,4.40
2022-12-08T00:23:56.719Z,4.40
2022-12-08T00:26:24.116Z,4.50
2022-12-08T00:28:51.461Z,4.50
2022-12-08T00:31:18.929Z,4.40
2022-12-08T00:33:46.373Z,4.40
2022-12-08T00:36:14.290Z,4.40
2022-12-08T00:38:41.736Z,4.40
2022-12-08T00:41:12.789Z,4.50
2022-12-08T00:43:40.128Z,4.50
2022-12-08T00:46:07.502Z,4.50
2022-12-08T00:48:34.938Z,4.50
2022-12-08T00:51:02.364Z,4.50
2022-12-08T00:53:31.253Z,4.40
2022-12-08T00:55:58.596Z,4.40
2022-12-08T00:58:25.894Z,4.50
2022-12-08T01:00:53.293Z,4.50
2022-12-08T01:03:20.709Z,4.50
2022-12-08T01:05:48.039Z,4.50
2022-12-08T01:08:15.522Z,4.50
2022-12-08T01:10:43.168Z,4.40
2022-12-08T01:13:11.405Z,4.40
2022-12-08T01:15:38.808Z,4.30
2022-12-08T01:18:06.145Z,4.30
2022-12-08T01:20:33.445Z,4.30
2022-12-08T01:23:00.759Z,4.30
2022-12-08T01:25:28.110Z,4.20
2022-12-08T01:27:55.418Z,4.20
2022-12-08T01:30:22.766Z,4.20
2022-12-08T01:32:50.057Z,4.20
2022-12-08T01:35:17.545Z,4.20
2022-12-08T01:37:44.934Z,4.20
2022-12-08T01:40:12.331Z,4.20
2022-12-08T01:42:39.690Z,4.20
2022-12-08T01:45:15.166Z,4.20
2022-12-08T01:47:45.739Z,4.20
2022-12-08T01:50:13.719Z,4.20
2022-12-08T01:52:55.099Z,4.20
2022-12-08T01:55:25.372Z,4.20
2022-12-08T01:58:06.129Z,4.20
2022-12-08T02:00:33.472Z,4.20
2022-12-08T02:03:05.246Z,4.20
2022-12-08T02:05:37.775Z,4.20
2022-12-08T02:08:10.040Z,4.20
2022-12-08T02:10:41.344Z,4.20
2022-12-08T02:13:14.721Z,4.10
2022-12-08T02:15:58.045Z,4.10
2022-12-08T02:18:29.491Z,4.10
2022-12-08T02:21:17.278Z,4.10
2022-12-08T02:23:44.537Z,4.10
2022-12-08T02:26:30.656Z,4.10
2022-12-08T02:29:33.109Z,4.00
2022-12-08T02:32:23.050Z,4.00
2022-12-08T02:35:00.291Z,4.00
2022-12-08T02:37:37.036Z,4.00
2022-12-08T02:40:13.261Z,3.90
2022-12-08T02:42:44.610Z,3.90
2022-12-08T02:45:34.131Z,3.90
2022-12-08T02:48:01.486Z,3.90
2022-12-08T02:50:28.854Z,3.90
2022-12-08T02:52:56.223Z,3.90
2022-12-08T02:55:23.524Z,3.90
2022-12-08T02:58:07.465Z,3.80
2022-12-08T03:01:06.167Z,3.80
2022-12-08T03:04:21.989Z,3.90
2022-12-08T03:06:51.022Z,3.90
2022-12-08T03:09:32.657Z,3.90
2022-12-08T03:12:10.809Z,3.90
2022-12-08T03:14:38.589Z,3.90
2022-12-08T03:17:05.858Z,3.90
2022-12-08T03:19:35.532Z,3.90
2022-12-08T03:22:03.548Z,3.80
2022-12-08T03:24:38.343Z,3.80
2022-12-08T03:27:13.624Z,3.80
2022-12-08T03:29:40.993Z,3.80
2022-12-08T03:32:16.957Z,3.80
2022-12-08T03:34:44.640Z,3.80
2022-12-08T03:37:13.215Z,3.80
2022-12-08T03:39:40.547Z,3.80
2022-12-08T03:42:07.880Z,3.80
2022-12-08T03:44:35.153Z,3.70
2022-12-08T03:47:02.449Z,3.70
2022-12-08T03:49:29.730Z,3.70
2022-12-08T03:51:57.034Z,3.60
2022-12-08T03:54:24.402Z,3.60
2022-12-08T03:56:51.734Z,3.60
2022-12-08T03:59:19.128Z,3.50
2022-12-08T04:01:46.498Z,3.50
2022-12-08T04:04:13.852Z,3.50
2022-12-08T04:06:41.616Z,3.50
2022-12-08T04:09:08.971Z,3.50
2022-12-08T04:11:36.278Z,3.50
2022-12-08T04:14:03.621Z,3.50
2022-12-08T04:16:30.995Z,3.50
2022-12-08T04:18:58.345Z,3.50
2022-12-08T04:21:25.692Z,3.50
2022-12-08T04:23:56.205Z,3.50
2022-12-08T04:26:28.194Z,3.40
2022-12-08T04:28:55.533Z,3.40
2022-12-08T04:31:22.945Z,3.40
2022-12-08T04:33:50.300Z,3.50
2022-12-08T04:36:17.646Z,3.50
2022-12-08T04:38:44.989Z,3.50
2022-12-08T04:41:12.317Z,3.50
2022-12-08T04:43:39.729Z,3.50
2022-12-08T04:46:08.293Z,3.50
2022-12-08T04:48:37.158Z,3.60
2022-12-08T04:51:04.842Z,3.60
2022-12-08T04:53:32.320Z,3.60
2022-12-08T04:55:59.597Z,3.60
2022-12-08T04:58:26.850Z,3.60
2022-12-08T05:00:54.266Z,3.60
2022-12-08T05:03:28.323Z,3.60
2022-12-08T05:05:56.338Z,3.60
2022-12-08T05:08:23.700Z,3.60
2022-12-08T05:10:51.032Z,3.60
2022-12-08T05:13:18.314Z,3.60
2022-12-08T05:15:45.595Z,3.60
2022-12-08T05:18:13.378Z,3.60
2022-12-08T05:20:40.695Z,3.70
2022-12-08T05:23:08.045Z,3.70
2022-12-08T05:25:35.318Z,3.70
2022-12-08T05:28:39.206Z,3.70
2022-12-08T05:30:49.965Z,3.70
2022-12-08T05:33:17.316Z,3.70
2022-12-08T05:35:44.613Z,3.70
2022-12-08T05:38:11.936Z,3.70
2022-12-08T05:40:39.690Z,3.80
2022-12-08T05:43:07.210Z,3.80
2022-12-08T05:45:34.633Z,3.80
2022-12-08T05:48:02.071Z,3.80
2022-12-08T05:50:29.340Z,3.80
2022-12-08T05:52:57.666Z,3.80
2022-12-08T05:55:25.001Z,3.80
2022-12-08T05:57:52.310Z,3.80
2022-12-08T06:00:20.641Z,3.80
2022-12-08T06:02:48.090Z,3.80
2022-12-08T06:05:15.724Z,3.80
2022-12-08T06:07:43.090Z,3.80
2022-12-08T06:10:10.748Z,3.90
2022-12-08T06:12:38.095Z,3.90
2022-12-08T06:15:05.754Z,3.90
2022-12-08T06:17:33.062Z,3.90
2022-12-08T06:20:00.442Z,3.90
2022-12-08T06:22:28.473Z,3.90
2022-12-08T06:24:55.858Z,3.90
2022-12-08T06:27:23.254Z,3.90
2022-12-08T06:29:50.575Z,3.90
2022-12-08T06:32:20.748Z,3.90
2022-12-08T06:34:50.318Z,3.90
2022-12-08T06:37:17.903Z,3.90
2022-12-08T06:39:45.640Z,4.00
2022-12-08T06:42:31.500Z,4.00
2022-12-08T06:44:58.854Z,4.00
2022-12-08T06:47:26.535Z,4.00
2022-12-08T06:49:54.081Z,4.00
2022-12-08T06:52:21.346Z,4.00
2022-12-08T06:54:48.660Z,4.10
2022-12-08T06:57:16.004Z,4.10
2022-12-08T06:59:43.340Z,4.00
2022-12-08T07:02:10.892Z,4.00
2022-12-08T07:04:38.228Z,4.00
2022-12-08T07:07:05.540Z,4.00
2022-12-08T07:09:32.867Z,4.00
2022-12-08T07:12:00.225Z,4.00
2022-12-08T07:14:27.641Z,4.00
2022-12-08T07:16:55.007Z,4.00
2022-12-08T07:19:22.394Z,4.00
2022-12-08T07:21:49.830Z,4.00
2022-12-08T07:24:17.137Z,4.00
2022-12-08T07:26:44.536Z,4.00
2022-12-08T07:29:11.966Z,4.00
2022-12-08T07:31:39.345Z,4.10
2022-12-08T07:34:06.815Z,4.10
2022-12-08T07:36:34.211Z,4.10
2022-12-08T07:39:01.574Z,4.10
2022-12-08T07:41:29.017Z,4.10
2022-12-08T07:43:56.681Z,4.10
2022-12-08T07:46:25.003Z,4.10
2022-12-08T07:48:53.253Z,4.10
2022-12-08T07:51:20.672Z,4.20
2022-12-08T07:53:53.808Z,4.20
2022-12-08T07:56:22.243Z,4.20
2022-12-08T07:58:49.645Z,4.30
2022-12-08T08:01:27.858Z,4.30
2022-12-08T08:03:56.445Z,4.30
2022-12-08T08:06:23.930Z,4.40
2022-12-08T08:08:51.343Z,4.40
2022-12-08T08:11:21.345Z,4.50
2022-12-08T08:13:50.168Z,4.50
2022-12-08T08:16:17.805Z,4.60
2022-12-08T08:18:47.170Z,4.60
2022-12-08T08:21:44.900Z,4.60
2022-12-08T08:24:01.845Z,4.70
2022-12-08T08:26:29.161Z,4.70
2022-12-08T08:28:56.478Z,4.70
2022-12-08T08:31:27.101Z,4.70
2022-12-08T08:33:55.629Z,4.70
2022-12-08T08:36:23.046Z,4.70
2022-12-08T08:38:50.498Z,4.70
2022-12-08T08:41:17.791Z,4.70
2022-12-08T08:43:45.176Z,4.70
2022-12-08T08:46:12.618Z,4.70
2022-12-08T08:48:40.019Z,4.80
2022-12-08T08:51:11.610Z,4.80
2022-12-08T08:53:39.087Z,4.90
2022-12-08T08:56:18.413Z,4.90
2022-12-08T08:58:47.651Z,4.90
2022-12-08T09:01:16.555Z,4.90
2022-12-08T09:03:44.745Z,4.90
2022-12-08T09:06:12.668Z,4.90
2022-12-08T09:08:40.753Z,5.00
2022-12-08T09:11:08.409Z,5.00
2022-12-08T09:13:35.839Z,5.00
2022-12-08T09:16:04.155Z,5.00
2022-12-08T09:18:31.651Z,5.10
2022-12-08T09:21:08.442Z,5.10
2022-12-08T09:23:36.084Z,5.10
2022-12-08T09:26:05.059Z,5.10
2022-12-08T09:28:32.907Z,5.10
2022-12-08T09:31:00.570Z,5.10
2022-12-08T09:33:27.932Z,5.10
2022-12-08T09:35:55.348Z,5.10
2022-12-08T09:38:22.666Z,5.10
2022-12-08T09:40:51.686Z,5.10
2022-12-08T09:43:53.107Z,5.10
2022-12-08T09:46:20.607Z,5.10
2022-12-08T09:48:55.737Z,5.10
2022-12-08T09:51:27.737Z,5.10
2022-12-08T09:53:56.834Z,5.10
2022-12-08T09:56:26.461Z,5.20
2022-12-08T09:58:56.765Z,5.20
2022-12-08T10:01:27.321Z,5.20
2022-12-08T10:03:57.391Z,5.30
2022-12-08T10:06:39.320Z,5.30
2022-12-08T10:09:34.018Z,5.30
2022-12-08T10:12:08.140Z,5.20
2022-12-08T10:14:35.686Z,5.20
2022-12-08T10:17:06.805Z,5.20
2022-12-08T10:19:34.191Z,5.20
2022-12-08T10:22:01.807Z,5.20
2022-12-08T10:24:38.950Z,5.20
2022-12-08T10:27:06.426Z,5.20
2022-12-08T10:29:33.815Z,5.20
2022-12-08T10:32:01.250Z,5.10
2022-12-08T10:34:31.317Z,5.10
2022-12-08T10:36:59.043Z,5.10
2022-12-08T10:39:30.705Z,5.00
2022-12-08T10:42:22.434Z,5.00
2022-12-08T10:45:10.221Z,5.00
2022-12-08T10:47:40.759Z,5.00
2022-12-08T10:50:21.629Z,5.00
2022-12-08T10:52:57.150Z,5.10
2022-12-08T10:55:24.512Z,5.10
2022-12-08T10:57:51.919Z,5.10
2022-12-08T11:00:22.086Z,5.10
2022-12-08T11:02:58.574Z,5.00
2022-12-08T11:05:33.926Z,5.00
2022-12-08T11:08:01.394Z,5.10
2022-12-08T11:10:44.847Z,5.10
2022-12-08T11:13:26.344Z,5.10
2022-12-08T11:15:56.735Z,5.20
2022-12-08T11:18:38.603Z,5.20
2022-12-08T11:21:17.882Z,5.20
2022-12-08T11:23:49.983Z,5.30
2022-12-08T11:26:33.684Z,5.30
2022-12-08T11:29:00.998Z,5.30
2022-12-08T11:31:33.897Z,5.30
2022-12-08T11:34:01.251Z,5.40
2022-12-08T11:36:30.218Z,5.30
2022-12-08T11:38:59.898Z,5.30
2022-12-08T11:41:35.837Z,5.30
2022-12-08T11:44:21.318Z,5.30
2022-12-08T11:47:15.307Z,5.50
2022-12-08T11:49:42.832Z,5.60
2022-12-08T11:52:13.316Z,5.70
2022-12-08T11:54:45.379Z,5.80
2022-12-08T11:57:16.062Z,5.80
2022-12-08T11:59:46.308Z,5.90
2022-12-08T12:02:16.194Z,5.80
2022-12-08T12:05:12.602Z,5.80
2022-12-08T12:07:50.843Z,5.80
2022-12-08T12:10:21.084Z,5.80
2022-12-08T12:13:02.087Z,5.80
2022-12-08T12:15:51.204Z,5.80
2022-12-08T12:18:24.634Z,5.80
2022-12-08T12:21:06.156Z,5.80
2022-12-08T12:23:52.505Z,5.80
2022-12-08T12:26:24.184Z,5.80
2022-12-08T12:29:08.103Z,5.80
2022-12-08T12:31:43.648Z,5.70
2022-12-08T12:34:31.267Z,5.80
2022-12-08T12:37:10.361Z,5.70
2022-12-08T12:39:58.335Z,5.70
2022-12-08T12:42:44.682Z,5.70
2022-12-08T12:45:16.301Z,5.70
2022-12-08T12:48:03.984Z,5.70
2022-12-08T12:50:34.144Z,5.70
2022-12-08T12:53:09.175Z,5.70
2022-12-08T12:55:45.885Z,5.70
2022-12-08T12:58:28.405Z,5.80
2022-12-08T13:01:11.617Z,5.80
2022-12-08T13:03:44.645Z,5.90
2022-12-08T13:06:14.867Z,5.90
2022-12-08T13:08:50.352Z,5.90
2022-12-08T13:11:17.739Z,6.00
2022-12-08T13:13:59.889Z,6.10
2022-12-08T13:16:28.139Z,6.10
2022-12-08T13:19:04.268Z,6.20
2022-12-08T13:21:36.382Z,6.30
2022-12-08T13:24:25.619Z,6.30
2022-12-08T13:27:04.817Z,6.30
2022-12-08T13:29:35.870Z,6.40
2022-12-08T13:32:12.077Z,6.50
2022-12-08T13:34:58.042Z,6.50
2022-12-08T13:37:28.576Z,6.50
2022-12-08T13:40:23.326Z,6.50
2022-12-08T13:42:56.525Z,6.50
2022-12-08T13:46:04.312Z,6.50
2022-12-08T13:57:11.450Z,6.30
2022-12-08T13:59:43.785Z,6.30
2022-12-08T14:02:35.656Z,6.30
2022-12-08T14:05:20.333Z,6.30
2022-12-08T14:07:50.105Z,6.30
2022-12-08T14:10:20.080Z,6.30
2022-12-08T14:12:48.349Z,6.30
2022-12-08T14:15:15.870Z,6.30
2022-12-08T14:17:51.526Z,6.20
2022-12-08T14:20:29.686Z,6.20
2022-12-08T14:22:57.216Z,6.20
2022-12-08T14:25:25.508Z,6.20
2022-12-08T14:27:59.519Z,6.20
2022-12-08T14:30:30.577Z,6.20
2022-12-08T14:32:58.946Z,6.20
2022-12-08T14:35:30.990Z,6.20
2022-12-08T14:38:02.523Z,6.10
2022-12-08T14:40:32.639Z,6.10
2022-12-08T14:43:09.180Z,6.10
2022-12-08T14:45:42.328Z,6.10
2022-12-08T14:48:28.030Z,6.10
2022-12-08T14:51:04.765Z,6.10
2022-12-08T14:53:40.189Z,6.00
2022-12-08T14:56:09.762Z,6.00
2022-12-08T14:58:37.163Z,5.90
2022-12-08T15:01:05.858Z,5.90
2022-12-08T15:03:33.214Z,5.90
2022-12-08T15:06:03.425Z,5.90
2022-12-08T15:08:31.287Z,5.90
2022-12-08T15:11:20.658Z,5.90
2022-12-08T15:13:49.731Z,5.90
2022-12-08T15:16:40.663Z,5.90
2022-12-08T15:19:40.451Z,5.90
2022-12-08T15:22:28.016Z,6.60
2022-12-08T15:24:55.662Z,8.10
2022-12-08T15:27:23.812Z,9.20
2022-12-08T15:29:51.340Z,10.20
2022-12-08T15:32:22.738Z,10.90
2022-12-08T15:34:50.219Z,11.40
2022-12-08T15:37:24.869Z,11.80
2022-12-08T15:39:52.376Z,12.30
2022-12-08T15:42:19.809Z,12.00
2022-12-08T15:44:47.396Z,11.20
2022-12-08T15:47:21.870Z,10.40
2022-12-08T15:49:49.721Z,9.60
2022-12-08T15:52:20.183Z,8.90
2022-12-08T15:54:47.693Z,8.40
2022-12-08T15:58:38.311Z,7.90
2022-12-08T16:00:51.953Z,7.50
2022-12-08T16:04:27.500Z,7.10
2022-12-08T16:07:12.490Z,6.80
2022-12-08T16:09:12.379Z,6.60
2022-12-08T16:12:08.427Z,6.50
2022-12-08T16:17:24.648Z,6.20
2022-12-08T16:19:51.974Z,6.00
2022-12-08T16:25:24.530Z,5.90
2022-12-08T16:28:02.913Z,5.70
2022-12-08T16:30:36.254Z,5.60
2022-12-08T16:33:03.715Z,5.50
2022-12-08T16:35:31.302Z,5.50
2022-12-08T16:37:58.628Z,5.40
2022-12-08T16:40:25.986Z,5.40
2022-12-08T16:42:53.476Z,5.40
2022-12-08T16:45:24.766Z,5.20
2022-12-08T16:47:53.444Z,5.10
2022-12-08T16:50:20.935Z,5.00
2022-12-08T16:52:48.525Z,4.90
2022-12-08T16:55:17.954Z,4.90
2022-12-08T16:57:45.886Z,4.90
2022-12-08T17:00:18.373Z,4.90
2022-12-08T17:02:45.821Z,4.90
2022-12-08T17:05:15.028Z,4.90
2022-12-08T17:07:43.226Z,4.90
2022-12-08T17:10:12.121Z,4.80
2022-12-08T17:12:39.620Z,4.90
2022-12-08T17:15:12.037Z,4.90
2022-12-08T17:17:39.603Z,4.90
2022-12-08T17:20:09.181Z,4.90
2022-12-08T17:22:36.649Z,4.90
2022-12-08T17:25:04.501Z,5.00
2022-12-08T17:27:31.939Z,5.30
2022-12-08T17:29:59.524Z,6.70
2022-12-08T17:32:27.072Z,8.50
2022-12-08T17:34:54.522Z,10.60
2022-12-08T17:37:21.809Z,12.70
2022-12-08T17:39:49.185Z,13.90
2022-12-08T17:42:16.504Z,14.30
2022-12-08T17:44:46.545Z,14.50
2022-12-08T17:47:13.958Z,14.80
2022-12-08T17:49:41.326Z,14.90
2022-12-08T17:52:10.701Z,14.10
2022-12-08T17:54:38.151Z,12.60
2022-12-08T17:57:05.598Z,11.20
2022-12-08T17:59:33.091Z,10.10
2022-12-08T18:02:00.705Z,9.10
2022-12-08T18:04:28.365Z,8.20
2022-12-08T18:06:58.226Z,7.60
2022-12-08T18:09:25.726Z,7.10
2022-12-08T18:11:53.122Z,6.60
2022-12-08T18:14:20.562Z,6.30
2022-12-08T18:16:48.096Z,6.00
2022-12-08T18:19:16.006Z,5.80
2022-12-08T18:21:43.392Z,5.50
2022-12-08T18:24:17.533Z,5.40
2022-12-08T18:26:45.063Z,5.20
2022-12-08T18:29:12.486Z,5.00
2022-12-08T18:31:39.758Z,4.90
2022-12-08T18:34:07.067Z,4.80
2022-12-08T18:36:34.743Z,4.70
2022-12-08T18:39:07.228Z,4.60
2022-12-08T18:41:37.717Z,4.50
2022-12-08T18:44:05.054Z,4.50
2022-12-08T18:46:32.506Z,4.40
2022-12-08T18:49:00.050Z,4.30
2022-12-08T18:51:27.622Z,4.20
2022-12-08T18:53:54.957Z,4.20
2022-12-08T18:56:28.998Z,4.20
2022-12-08T18:59:02.898Z,4.10
2022-12-08T19:01:35.317Z,4.10
2022-12-08T19:04:27.380Z,4.10
2022-12-08T19:06:52.277Z,4.00
2022-12-08T19:09:19.779Z,4.10
2022-12-08T19:11:47.192Z,4.00
2022-12-08T19:14:14.559Z,4.00
2022-12-08T19:16:41.882Z,3.90
2022-12-08T19:19:09.804Z,3.80
2022-12-08T19:21:42.929Z,3.70
2022-12-08T19:24:13.344Z,3.70
2022-12-08T19:26:40.758Z,3.70
2022-12-08T19:29:08.140Z,3.70
2022-12-08T19:31:35.597Z,3.60
2022-12-08T19:34:03.214Z,3.50
2022-12-08T19:36:35.414Z,3.40
2022-12-08T19:39:22.618Z,3.40
2022-12-08T19:42:09.285Z,3.30
2022-12-08T19:44:54.791Z,3.20
2022-12-08T19:47:23.506Z,3.20
2022-12-08T19:49:51.360Z,3.10
2022-12-08T19:52:18.748Z,3.10
2022-12-08T19:54:46.179Z,3.10
2022-12-08T19:57:13.774Z,3.10
2022-12-08T19:59:41.120Z,3.10
2022-12-08T20:02:08.574Z,3.10
2022-12-08T20:04:35.986Z,3.00
2022-12-08T20:07:04.252Z,3.00
2022-12-08T20:09:31.590Z,2.90
2022-12-08T20:11:58.865Z,2.80
2022-12-08T20:14:26.180Z,2.80
2022-12-08T20:16:53.600Z,2.80
2022-12-08T20:19:21.012Z,2.70
2022-12-08T20:21:48.846Z,2.60
2022-12-08T20:24:16.829Z,2.60
2022-12-08T20:26:44.153Z,2.60
2022-12-08T20:29:12.059Z,2.50
2022-12-08T20:31:39.840Z,2.50
2022-12-08T20:34:11.490Z,2.50
2022-12-08T20:36:38.907Z,2.50
2022-12-08T20:39:06.234Z,2.40
2022-12-08T20:41:38.816Z,2.30
2022-12-08T20:44:07.068Z,2.30
2022-12-08T20:46:34.674Z,2.30
2022-12-08T20:49:04.177Z,2.20
2022-12-08T20:51:32.528Z,2.20
2022-12-08T20:54:00.251Z,2.20
2022-12-08T20:56:27.737Z,2.20
2022-12-08T20:58:56.212Z,2.20
2022-12-08T21:01:24.263Z,2.10
2022-12-08T21:03:52.177Z,2.20
2022-12-08T21:06:23.620Z,2.10
2022-12-08T21:08:51.648Z,2.10
2022-12-08T21:11:19.204Z,2.10
2022-12-08T21:13:46.896Z,2.20
2022-12-08T21:16:15.048Z,2.20
2022-12-08T21:18:42.531Z,2.30
2022-12-08T21:21:11.895Z,2.30
2022-12-08T21:23:39.642Z,2.30
2022-12-08T21:26:11.757Z,2.30
2022-12-08T21:28:39.193Z,2.30
2022-12-08T21:31:26.488Z,2.30
2022-12-08T21:33:55.261Z,2.30
2022-12-08T21:36:22.924Z,2.30
2022-12-08T21:38:50.423Z,2.30
2022-12-08T21:41:38.332Z,2.20
2022-12-08T21:44:06.397Z,2.30
2022-12-08T21:46:33.899Z,2.30
2022-12-08T21:49:01.954Z,2.30
2022-12-08T21:51:30.503Z,2.30
2022-12-08T21:53:57.967Z,2.20
2022-12-08T21:56:25.502Z,2.20
2022-12-08T21:58:53.540Z,2.20
2022-12-08T22:01:21.052Z,2.20
2022-12-08T22:03:48.504Z,2.10
2022-12-08T22:06:16.122Z,2.10
2022-12-08T22:08:43.813Z,2.20
2022-12-08T22:11:11.686Z,2.20
2022-12-08T22:13:40.625Z,2.30
2022-12-08T22:16:10.151Z,2.30
2022-12-08T22:18:38.209Z,2.30
2022-12-08T22:21:16.716Z,2.30
2022-12-08T22:23:44.455Z,2.30
2022-12-08T22:26:12.146Z,2.30
2022-12-08T22:28:41.064Z,2.30
2022-12-08T22:31:13.201Z,2.30
2022-12-08T22:33:40.907Z,2.30
2022-12-08T22:36:13.202Z,2.40
2022-12-08T22:38:40.709Z,2.40
2022-12-08T22:41:08.145Z,2.40
2022-12-08T22:43:36.671Z,2.40
2022-12-08T22:46:12.265Z,2.40
2022-12-08T22:48:40.170Z,2.40
2022-12-08T22:51:07.503Z,2.40
2022-12-08T22:53:34.907Z,2.40
2022-12-08T22:56:06.516Z,2.50
2022-12-08T22:58:33.856Z,2.40
2022-12-08T23:01:01.217Z,2.50
2022-12-08T23:03:28.765Z,2.60
2022-12-08T23:05:56.341Z,2.50
2022-12-08T23:08:24.303Z,2.50
2022-12-08T23:10:52.434Z,2.40
2022-12-08T23:13:20.299Z,2.30
2022-12-08T23:15:47.814Z,2.30
2022-12-08T23:18:16.264Z,2.20
2022-12-08T23:20:43.718Z,2.20
2022-12-08T23:23:11.092Z,2.20
2022-12-08T23:25:42.192Z,2.10
2022-12-08T23:28:10.211Z,2.10
2022-12-08T23:30:39.993Z,2.10
2022-12-08T23:33:07.434Z,2.20
2022-12-08T23:35:34.879Z,2.20
2022-12-08T23:38:02.499Z,2.20
2022-12-08T23:40:29.955Z,2.20
2022-12-08T23:42:57.302Z,2.20
2022-12-08T23:45:24.911Z,2.20
2022-12-08T23:47:52.499Z,2.10
2022-12-08T23:50:19.835Z,2.20
2022-12-08T23:52:47.331Z,2.20
2022-12-08T23:55:14.677Z,2.20
2022-12-08T23:57:41.996Z,2.30
